This is the latest recevied weather packets stored in our database for station/object W2TAO. If no packets are shown the sender has not sent any weather packets the latest 10 day(s).
| Time | Temp. | Humidity | Pressure | Rain* | Wind** | Luminosity | Snow |
|---|---|---|---|---|---|---|---|
| 1777571803 | 11.11° C | 78% | 1008.6 hPa | 0 mm | - | 100 W/m² | - |
| 1777571499 | 11.67° C | 76% | 1008.5 hPa | 0 mm | - | 92 W/m² | - |
| 1777571196 | 11.67° C | 77% | 1008.5 hPa | 0 mm | - | 247 W/m² | - |
| 1777570891 | 12.22° C | 76% | 1008.5 hPa | 0 mm | - | 307 W/m² | - |
| 1777570587 | 11.67° C | 77% | 1008.4 hPa | 0 mm | - | 262 W/m² | - |
| 1777570285 | 12.22° C | 78% | 1008.6 hPa | 0 mm | - | 255 W/m² | - |
| 1777569980 | 11.67° C | 79% | 1008.5 hPa | 0 mm | - | 317 W/m² | - |
| 1777569676 | 11.67° C | 80% | 1008.4 hPa | 0 mm | - | 151 W/m² | - |
| 1777569372 | 12.22° C | 78% | 1008.4 hPa | 0 mm | - | 229 W/m² | - |
| 1777569069 | 12.22° C | 78% | 1008.3 hPa | 0 mm | - | 290 W/m² | - |
| 1777568766 | 12.22° C | 81% | 1008.4 hPa | 0 mm | - | 341 W/m² | - |
| 1777568463 | 12.78° C | 79% | 1008.5 hPa | 0 mm | - | 267 W/m² | - |
| 1777568160 | 12.22° C | 79% | 1008.4 hPa | 0 mm | - | 513 W/m² | - |
| 1777567856 | 12.22° C | 78% | 1008.5 hPa | 0 mm | - | 317 W/m² | - |
| 1777567552 | 12.22° C | 80% | 1008.4 hPa | 0 mm | - | 309 W/m² | - |
| 1777567250 | 12.78° C | 79% | 1008.7 hPa | 0 mm | - | 540 W/m² | - |
| 1777566949 | 11.67° C | 82% | 1008.7 hPa | 0 mm | - | 483 W/m² | - |
| 1777566646 | 11.67° C | 84% | 1008.7 hPa | 0 mm | - | 560 W/m² | - |
| 1777566343 | 11.67° C | 80% | 1008.8 hPa | 0 mm | - | 252 W/m² | - |
| 1777566041 | 12.22° C | 81% | 1008.9 hPa | 0 mm | - | 230 W/m² | - |
| 1777565736 | 11.67° C | 84% | 1008.9 hPa | 0 mm | - | 549 W/m² | - |
| 1777565432 | 11.11° C | 88% | 1008.9 hPa | 0 mm | - | 453 W/m² | - |
| 1777565129 | 10.56° C | 88% | 1009.2 hPa | 0 mm | - | 277 W/m² | - |
| 1777564825 | 10.56° C | 87% | 1009 hPa | 0 mm | - | 174 W/m² | - |
| 1777564520 | 10.56° C | 86% | 1008.9 hPa | 0 mm | - | 144 W/m² | - |
* Rain latest hour (hover to see other rain measurements)
** Current wind speed in m/s (hover to see current wind gust speed)